sensor_id;sensor_type;location;lat;lon;timestamp;temperature;humidity
64843;DHT22;51310;52.198;5.422;2022-09-13T00:00:56;19.70;89.60
64843;DHT22;51310;52.198;5.422;2022-09-13T00:03:23;19.60;89.50
64843;DHT22;51310;52.198;5.422;2022-09-13T00:05:49;19.60;89.50
64843;DHT22;51310;52.198;5.422;2022-09-13T00:08:16;19.70;89.60
64843;DHT22;51310;52.198;5.422;2022-09-13T00:10:44;19.60;89.40
64843;DHT22;51310;52.198;5.422;2022-09-13T00:13:12;19.60;89.80
64843;DHT22;51310;52.198;5.422;2022-09-13T00:15:45;19.50;90.10
64843;DHT22;51310;52.198;5.422;2022-09-13T00:18:14;19.50;90.40
64843;DHT22;51310;52.198;5.422;2022-09-13T00:20:41;19.40;90.90
64843;DHT22;51310;52.198;5.422;2022-09-13T00:23:07;19.30;91.30
64843;DHT22;51310;52.198;5.422;2022-09-13T00:25:33;19.20;91.80
64843;DHT22;51310;52.198;5.422;2022-09-13T00:28:00;19.20;92.30
64843;DHT22;51310;52.198;5.422;2022-09-13T00:32:53;19.00;93.20
64843;DHT22;51310;52.198;5.422;2022-09-13T00:35:19;18.80;94.60
64843;DHT22;51310;52.198;5.422;2022-09-13T00:37:45;18.80;94.70
64843;DHT22;51310;52.198;5.422;2022-09-13T00:40:11;18.70;94.90
64843;DHT22;51310;52.198;5.422;2022-09-13T00:42:37;18.70;95.30
64843;DHT22;51310;52.198;5.422;2022-09-13T00:50:36;19.00;95.80
64843;DHT22;51310;52.198;5.422;2022-09-13T00:53:13;19.00;95.90
64843;DHT22;51310;52.198;5.422;2022-09-13T00:56:00;19.00;96.70
64843;DHT22;51310;52.198;5.422;2022-09-13T01:01:08;18.90;97.70
64843;DHT22;51310;52.198;5.422;2022-09-13T01:03:38;18.90;98.20
64843;DHT22;51310;52.198;5.422;2022-09-13T01:08:47;18.90;97.70
64843;DHT22;51310;52.198;5.422;2022-09-13T01:11:28;18.30;99.90
64843;DHT22;51310;52.198;5.422;2022-09-13T01:14:11;18.40;97.90
64843;DHT22;51310;52.198;5.422;2022-09-13T01:16:38;18.20;98.20
64843;DHT22;51310;52.198;5.422;2022-09-13T01:19:04;18.40;98.20
64843;DHT22;51310;52.198;5.422;2022-09-13T01:28:24;18.60;97.10
64843;DHT22;51310;52.198;5.422;2022-09-13T01:31:05;18.60;96.80
64843;DHT22;51310;52.198;5.422;2022-09-13T01:34:23;18.60;97.50
64843;DHT22;51310;52.198;5.422;2022-09-13T01:37:12;18.60;97.00
64843;DHT22;51310;52.198;5.422;2022-09-13T01:45:45;18.40;98.80
64843;DHT22;51310;52.198;5.422;2022-09-13T01:51:48;18.50;98.70
64843;DHT22;51310;52.198;5.422;2022-09-13T01:58:22;18.50;98.90
64843;DHT22;51310;52.198;5.422;2022-09-13T02:01:17;18.60;99.20
64843;DHT22;51310;52.198;5.422;2022-09-13T02:04:22;18.60;99.30
64843;DHT22;51310;52.198;5.422;2022-09-13T02:07:01;18.60;99.50
64843;DHT22;51310;52.198;5.422;2022-09-13T02:09:36;18.60;99.90
64843;DHT22;51310;52.198;5.422;2022-09-13T02:12:14;18.60;99.90
64843;DHT22;51310;52.198;5.422;2022-09-13T02:15:01;18.40;99.90
64843;DHT22;51310;52.198;5.422;2022-09-13T02:17:40;18.50;99.90
64843;DHT22;51310;52.198;5.422;2022-09-13T02:20:16;18.50;99.90
64843;DHT22;51310;52.198;5.422;2022-09-13T02:22:52;18.60;99.90
64843;DHT22;51310;52.198;5.422;2022-09-13T02:25:25;18.60;99.70
64843;DHT22;51310;52.198;5.422;2022-09-13T02:27:55;18.60;99.90
64843;DHT22;51310;52.198;5.422;2022-09-13T02:30:27;18.50;99.90
64843;DHT22;51310;52.198;5.422;2022-09-13T02:33:25;18.50;99.90
64843;DHT22;51310;52.198;5.422;2022-09-13T02:36:06;18.50;99.90
64843;DHT22;51310;52.198;5.422;2022-09-13T02:38:48;18.60;99.90
64843;DHT22;51310;52.198;5.422;2022-09-13T02:41:32;18.60;99.90
64843;DHT22;51310;52.198;5.422;2022-09-13T02:58:45;18.50;99.90
64843;DHT22;51310;52.198;5.422;2022-09-13T03:01:34;18.50;99.90
64843;DHT22;51310;52.198;5.422;2022-09-13T03:04:02;18.50;99.90
64843;DHT22;51310;52.198;5.422;2022-09-13T03:06:28;18.50;99.90
64843;DHT22;51310;52.198;5.422;2022-09-13T03:08:57;18.50;99.90
64843;DHT22;51310;52.198;5.422;2022-09-13T03:15:00;18.50;99.90
64843;DHT22;51310;52.198;5.422;2022-09-13T03:21:50;18.50;99.90
64843;DHT22;51310;52.198;5.422;2022-09-13T03:31:26;18.50;99.90
64843;DHT22;51310;52.198;5.422;2022-09-13T03:42:15;18.40;99.90
64843;DHT22;51310;52.198;5.422;2022-09-13T03:44:49;18.40;99.90
64843;DHT22;51310;52.198;5.422;2022-09-13T03:47:21;18.40;99.90
64843;DHT22;51310;52.198;5.422;2022-09-13T03:49:56;18.30;99.90
64843;DHT22;51310;52.198;5.422;2022-09-13T03:52:23;18.30;99.90
64843;DHT22;51310;52.198;5.422;2022-09-13T03:54:49;18.20;99.90
64843;DHT22;51310;52.198;5.422;2022-09-13T03:57:20;18.20;99.90
64843;DHT22;51310;52.198;5.422;2022-09-13T03:59:50;18.20;99.90
64843;DHT22;51310;52.198;5.422;2022-09-13T04:02:17;18.20;99.90
64843;DHT22;51310;52.198;5.422;2022-09-13T04:04:45;18.20;99.90
64843;DHT22;51310;52.198;5.422;2022-09-13T04:07:14;18.10;99.90
64843;DHT22;51310;52.198;5.422;2022-09-13T04:09:43;18.00;99.90
64843;DHT22;51310;52.198;5.422;2022-09-13T04:12:10;18.10;99.90
64843;DHT22;51310;52.198;5.422;2022-09-13T04:14:39;18.00;99.90
64843;DHT22;51310;52.198;5.422;2022-09-13T04:17:05;18.00;99.90
64843;DHT22;51310;52.198;5.422;2022-09-13T04:19:32;18.10;99.90
64843;DHT22;51310;52.198;5.422;2022-09-13T04:21:58;18.10;99.90
64843;DHT22;51310;52.198;5.422;2022-09-13T04:24:28;18.20;99.90
64843;DHT22;51310;52.198;5.422;2022-09-13T04:26:55;18.10;99.90
64843;DHT22;51310;52.198;5.422;2022-09-13T04:29:23;18.10;99.90
64843;DHT22;51310;52.198;5.422;2022-09-13T04:31:51;18.10;99.90
64843;DHT22;51310;52.198;5.422;2022-09-13T04:34:19;18.00;99.90
64843;DHT22;51310;52.198;5.422;2022-09-13T04:39:15;17.90;99.90
64843;DHT22;51310;52.198;5.422;2022-09-13T04:41:42;17.90;99.90
64843;DHT22;51310;52.198;5.422;2022-09-13T04:44:13;17.70;99.90
64843;DHT22;51310;52.198;5.422;2022-09-13T04:46:41;17.70;99.90
64843;DHT22;51310;52.198;5.422;2022-09-13T04:51:39;17.70;99.90
64843;DHT22;51310;52.198;5.422;2022-09-13T04:54:05;17.70;99.90
64843;DHT22;51310;52.198;5.422;2022-09-13T04:56:31;17.70;99.90
64843;DHT22;51310;52.198;5.422;2022-09-13T04:58:57;17.60;99.90
64843;DHT22;51310;52.198;5.422;2022-09-13T05:01:23;17.60;99.90
64843;DHT22;51310;52.198;5.422;2022-09-13T05:03:50;17.70;99.90
64843;DHT22;51310;52.198;5.422;2022-09-13T05:06:18;17.70;99.90
64843;DHT22;51310;52.198;5.422;2022-09-13T05:08:50;17.60;99.90
64843;DHT22;51310;52.198;5.422;2022-09-13T05:11:23;17.60;99.90
64843;DHT22;51310;52.198;5.422;2022-09-13T05:13:53;17.70;99.90
64843;DHT22;51310;52.198;5.422;2022-09-13T05:16:23;17.80;99.90
64843;DHT22;51310;52.198;5.422;2022-09-13T05:18:52;17.80;99.90
64843;DHT22;51310;52.198;5.422;2022-09-13T05:21:18;18.00;99.90
64843;DHT22;51310;52.198;5.422;2022-09-13T05:23:48;18.00;99.90
64843;DHT22;51310;52.198;5.422;2022-09-13T05:26:19;18.10;99.90
64843;DHT22;51310;52.198;5.422;2022-09-13T05:31:16;18.20;99.90
64843;DHT22;51310;52.198;5.422;2022-09-13T05:34:00;18.30;99.90
64843;DHT22;51310;52.198;5.422;2022-09-13T05:36:30;18.30;99.90
64843;DHT22;51310;52.198;5.422;2022-09-13T05:38:57;18.40;99.90
64843;DHT22;51310;52.198;5.422;2022-09-13T05:41:23;18.40;99.90
64843;DHT22;51310;52.198;5.422;2022-09-13T05:43:49;18.50;99.90
64843;DHT22;51310;52.198;5.422;2022-09-13T05:46:17;18.60;99.90
64843;DHT22;51310;52.198;5.422;2022-09-13T05:48:45;18.50;99.90
64843;DHT22;51310;52.198;5.422;2022-09-13T05:51:12;18.50;99.90
64843;DHT22;51310;52.198;5.422;2022-09-13T05:53:47;18.50;99.90
64843;DHT22;51310;52.198;5.422;2022-09-13T05:56:21;18.50;99.90
64843;DHT22;51310;52.198;5.422;2022-09-13T05:58:50;18.50;99.90
64843;DHT22;51310;52.198;5.422;2022-09-13T06:01:19;18.60;99.90
64843;DHT22;51310;52.198;5.422;2022-09-13T06:03:53;18.60;99.90
64843;DHT22;51310;52.198;5.422;2022-09-13T06:06:23;18.70;99.90
64843;DHT22;51310;52.198;5.422;2022-09-13T06:08:56;18.70;99.90
64843;DHT22;51310;52.198;5.422;2022-09-13T06:11:23;18.70;99.90
64843;DHT22;51310;52.198;5.422;2022-09-13T06:13:51;18.60;99.90
64843;DHT22;51310;52.198;5.422;2022-09-13T06:16:17;18.70;99.90
64843;DHT22;51310;52.198;5.422;2022-09-13T06:18:44;18.80;99.90
64843;DHT22;51310;52.198;5.422;2022-09-13T06:21:12;18.80;99.90
64843;DHT22;51310;52.198;5.422;2022-09-13T06:23:48;18.80;99.90
64843;DHT22;51310;52.198;5.422;2022-09-13T06:26:19;18.80;99.90
64843;DHT22;51310;52.198;5.422;2022-09-13T06:28:48;18.90;99.90
64843;DHT22;51310;52.198;5.422;2022-09-13T06:36:17;19.10;99.90
64843;DHT22;51310;52.198;5.422;2022-09-13T06:38:45;19.10;99.90
64843;DHT22;51310;52.198;5.422;2022-09-13T06:41:15;19.20;99.90
64843;DHT22;51310;52.198;5.422;2022-09-13T06:43:54;19.30;99.90
64843;DHT22;51310;52.198;5.422;2022-09-13T06:46:23;19.40;99.90
64843;DHT22;51310;52.198;5.422;2022-09-13T06:48:50;19.30;99.90
64843;DHT22;51310;52.198;5.422;2022-09-13T06:51:20;19.50;99.90
64843;DHT22;51310;52.198;5.422;2022-09-13T06:53:49;19.50;99.90
64843;DHT22;51310;52.198;5.422;2022-09-13T06:56:19;19.50;99.90
64843;DHT22;51310;52.198;5.422;2022-09-13T06:58:53;19.50;99.90
64843;DHT22;51310;52.198;5.422;2022-09-13T07:01:27;19.40;99.90
64843;DHT22;51310;52.198;5.422;2022-09-13T07:03:59;19.20;99.90
64843;DHT22;51310;52.198;5.422;2022-09-13T07:06:28;19.20;99.90
64843;DHT22;51310;52.198;5.422;2022-09-13T07:08:58;19.10;99.90
64843;DHT22;51310;52.198;5.422;2022-09-13T07:11:32;19.10;99.90
64843;DHT22;51310;52.198;5.422;2022-09-13T07:14:01;19.10;99.90
64843;DHT22;51310;52.198;5.422;2022-09-13T07:16:30;19.10;99.90
64843;DHT22;51310;52.198;5.422;2022-09-13T07:18:59;19.20;99.90
64843;DHT22;51310;52.198;5.422;2022-09-13T07:21:31;19.20;99.90
64843;DHT22;51310;52.198;5.422;2022-09-13T07:23:58;19.30;99.90
64843;DHT22;51310;52.198;5.422;2022-09-13T07:26:25;19.30;99.90
64843;DHT22;51310;52.198;5.422;2022-09-13T07:28:54;19.40;99.90
64843;DHT22;51310;52.198;5.422;2022-09-13T07:31:33;19.50;99.90
64843;DHT22;51310;52.198;5.422;2022-09-13T07:34:06;19.70;99.90
64843;DHT22;51310;52.198;5.422;2022-09-13T07:36:43;19.70;99.90
64843;DHT22;51310;52.198;5.422;2022-09-13T07:39:12;19.70;99.90
64843;DHT22;51310;52.198;5.422;2022-09-13T07:41:39;19.70;99.90
64843;DHT22;51310;52.198;5.422;2022-09-13T07:44:06;19.80;99.90
64843;DHT22;51310;52.198;5.422;2022-09-13T07:46:37;19.70;99.90
64843;DHT22;51310;52.198;5.422;2022-09-13T07:49:10;19.60;99.90
64843;DHT22;51310;52.198;5.422;2022-09-13T07:51:40;19.60;99.90
64843;DHT22;51310;52.198;5.422;2022-09-13T07:54:15;19.80;99.90
64843;DHT22;51310;52.198;5.422;2022-09-13T07:56:43;19.80;99.90
64843;DHT22;51310;52.198;5.422;2022-09-13T07:59:14;19.90;99.90
64843;DHT22;51310;52.198;5.422;2022-09-13T08:01:49;20.00;99.90
64843;DHT22;51310;52.198;5.422;2022-09-13T08:04:18;20.00;99.90
64843;DHT22;51310;52.198;5.422;2022-09-13T08:06:46;20.10;99.90
64843;DHT22;51310;52.198;5.422;2022-09-13T08:09:13;20.00;99.90
64843;DHT22;51310;52.198;5.422;2022-09-13T08:11:46;20.00;99.90
64843;DHT22;51310;52.198;5.422;2022-09-13T08:14:18;20.20;99.90
64843;DHT22;51310;52.198;5.422;2022-09-13T08:16:46;20.00;99.90
64843;DHT22;51310;52.198;5.422;2022-09-13T08:19:15;20.10;99.90
64843;DHT22;51310;52.198;5.422;2022-09-13T08:21:43;20.20;99.90
64843;DHT22;51310;52.198;5.422;2022-09-13T08:24:18;20.20;99.90
64843;DHT22;51310;52.198;5.422;2022-09-13T08:26:46;20.20;99.90
64843;DHT22;51310;52.198;5.422;2022-09-13T08:29:13;20.30;99.90
64843;DHT22;51310;52.198;5.422;2022-09-13T08:31:40;23.20;99.90
64843;DHT22;51310;52.198;5.422;2022-09-13T08:34:10;20.50;99.90
64843;DHT22;51310;52.198;5.422;2022-09-13T08:36:38;20.60;99.90
64843;DHT22;51310;52.198;5.422;2022-09-13T08:39:06;20.60;99.90
64843;DHT22;51310;52.198;5.422;2022-09-13T08:44:34;20.80;99.90
64843;DHT22;51310;52.198;5.422;2022-09-13T08:50:33;20.50;99.90
64843;DHT22;51310;52.198;5.422;2022-09-13T08:53:26;20.80;99.90
64843;DHT22;51310;52.198;5.422;2022-09-13T08:59:02;20.90;98.20
64843;DHT22;51310;52.198;5.422;2022-09-13T09:02:03;20.80;98.40
64843;DHT22;51310;52.198;5.422;2022-09-13T09:10:40;21.10;98.00
64843;DHT22;51310;52.198;5.422;2022-09-13T09:13:16;21.20;97.30
64843;DHT22;51310;52.198;5.422;2022-09-13T09:16:01;21.20;97.10
64843;DHT22;51310;52.198;5.422;2022-09-13T09:18:41;21.10;97.50
64843;DHT22;51310;52.198;5.422;2022-09-13T09:21:15;20.70;98.90
64843;DHT22;51310;52.198;5.422;2022-09-13T09:23:51;20.50;99.50
64843;DHT22;51310;52.198;5.422;2022-09-13T09:26:26;20.50;99.50
64843;DHT22;51310;52.198;5.422;2022-09-13T09:29:18;20.50;99.10
64843;DHT22;51310;52.198;5.422;2022-09-13T09:32:13;20.80;97.80
64843;DHT22;51310;52.198;5.422;2022-09-13T09:37:46;20.90;97.00
64843;DHT22;51310;52.198;5.422;2022-09-13T09:40:31;21.00;95.80
64843;DHT22;51310;52.198;5.422;2022-09-13T09:43:00;20.90;96.80
64843;DHT22;51310;52.198;5.422;2022-09-13T09:45:38;20.70;97.40
64843;DHT22;51310;52.198;5.422;2022-09-13T09:48:14;20.90;96.90
64843;DHT22;51310;52.198;5.422;2022-09-13T09:50:49;21.10;95.90
64843;DHT22;51310;52.198;5.422;2022-09-13T09:53:28;21.10;95.90
64843;DHT22;51310;52.198;5.422;2022-09-13T09:56:02;21.20;95.40
64843;DHT22;51310;52.198;5.422;2022-09-13T09:58:45;21.00;96.30
64843;DHT22;51310;52.198;5.422;2022-09-13T10:01:24;20.90;95.00
64843;DHT22;51310;52.198;5.422;2022-09-13T10:04:02;21.00;95.40
64843;DHT22;51310;52.198;5.422;2022-09-13T10:06:39;21.20;94.40
64843;DHT22;51310;52.198;5.422;2022-09-13T10:11:58;21.10;93.80
64843;DHT22;51310;52.198;5.422;2022-09-13T10:17:23;21.40;91.80
64843;DHT22;51310;52.198;5.422;2022-09-13T10:20:18;21.40;91.00
64843;DHT22;51310;52.198;5.422;2022-09-13T10:25:36;21.20;91.00
64843;DHT22;51310;52.198;5.422;2022-09-13T10:28:04;21.10;91.90
64843;DHT22;51310;52.198;5.422;2022-09-13T10:30:39;21.30;91.30
64843;DHT22;51310;52.198;5.422;2022-09-13T10:35:58;21.20;88.40
64843;DHT22;51310;52.198;5.422;2022-09-13T10:38:35;21.20;90.00
64843;DHT22;51310;52.198;5.422;2022-09-13T10:41:07;21.10;89.10
64843;DHT22;51310;52.198;5.422;2022-09-13T10:43:46;21.10;86.70
64843;DHT22;51310;52.198;5.422;2022-09-13T10:46:21;21.10;89.60
64843;DHT22;51310;52.198;5.422;2022-09-13T10:48:48;21.20;89.50
64843;DHT22;51310;52.198;5.422;2022-09-13T10:56:40;21.10;86.40
64843;DHT22;51310;52.198;5.422;2022-09-13T11:05:01;21.20;83.20
64843;DHT22;51310;52.198;5.422;2022-09-13T11:11:16;21.40;86.60
64843;DHT22;51310;52.198;5.422;2022-09-13T11:24:21;21.30;83.30
64843;DHT22;51310;52.198;5.422;2022-09-13T11:27:01;21.20;80.10
64843;DHT22;51310;52.198;5.422;2022-09-13T11:33:21;21.70;78.30
64843;DHT22;51310;52.198;5.422;2022-09-13T11:36:21;21.70;74.10
64843;DHT22;51310;52.198;5.422;2022-09-13T11:39:11;21.60;74.20
64843;DHT22;51310;52.198;5.422;2022-09-13T11:45:24;21.40;75.00
64843;DHT22;51310;52.198;5.422;2022-09-13T11:54:41;21.60;72.70
64843;DHT22;51310;52.198;5.422;2022-09-13T11:57:33;21.50;73.40
64843;DHT22;51310;52.198;5.422;2022-09-13T12:03:03;21.70;68.30
64843;DHT22;51310;52.198;5.422;2022-09-13T12:05:45;21.70;69.20
64843;DHT22;51310;52.198;5.422;2022-09-13T12:08:25;21.30;68.10
64843;DHT22;51310;52.198;5.422;2022-09-13T12:11:02;21.60;68.70
64843;DHT22;51310;52.198;5.422;2022-09-13T12:13:45;21.50;70.50
64843;DHT22;51310;52.198;5.422;2022-09-13T12:16:27;21.30;72.00
64843;DHT22;51310;52.198;5.422;2022-09-13T12:19:05;21.50;70.20
64843;DHT22;51310;52.198;5.422;2022-09-13T12:21:43;21.50;67.20
64843;DHT22;51310;52.198;5.422;2022-09-13T12:24:19;21.80;65.60
64843;DHT22;51310;52.198;5.422;2022-09-13T12:27:08;22.00;63.60
64843;DHT22;51310;52.198;5.422;2022-09-13T12:29:50;22.00;67.90
64843;DHT22;51310;52.198;5.422;2022-09-13T12:32:22;21.80;67.00
64843;DHT22;51310;52.198;5.422;2022-09-13T12:35:02;21.60;66.60
64843;DHT22;51310;52.198;5.422;2022-09-13T12:37:50;21.50;69.80
64843;DHT22;51310;52.198;5.422;2022-09-13T12:44:09;21.70;68.20
64843;DHT22;51310;52.198;5.422;2022-09-13T12:47:18;21.90;65.90
64843;DHT22;51310;52.198;5.422;2022-09-13T12:55:59;21.70;64.10
64843;DHT22;51310;52.198;5.422;2022-09-13T12:59:02;21.90;65.60
64843;DHT22;51310;52.198;5.422;2022-09-13T13:01:43;21.80;66.10
64843;DHT22;51310;52.198;5.422;2022-09-13T13:04:32;21.70;65.30
64843;DHT22;51310;52.198;5.422;2022-09-13T13:07:18;21.80;64.90
64843;DHT22;51310;52.198;5.422;2022-09-13T13:09:49;21.80;63.60
64843;DHT22;51310;52.198;5.422;2022-09-13T13:12:37;21.60;64.90
64843;DHT22;51310;52.198;5.422;2022-09-13T13:17:54;21.70;65.20
64843;DHT22;51310;52.198;5.422;2022-09-13T13:26:11;21.80;63.00
64843;DHT22;51310;52.198;5.422;2022-09-13T13:41:52;21.90;60.00
64843;DHT22;51310;52.198;5.422;2022-09-13T13:46:54;21.40;60.60
64843;DHT22;51310;52.198;5.422;2022-09-13T14:11:35;21.10;58.20
64843;DHT22;51310;52.198;5.422;2022-09-13T14:21:00;21.50;59.70
64843;DHT22;51310;52.198;5.422;2022-09-13T14:23:30;21.60;58.90
64843;DHT22;51310;52.198;5.422;2022-09-13T14:25:59;21.70;57.20
64843;DHT22;51310;52.198;5.422;2022-09-13T14:28:26;21.70;57.60
64843;DHT22;51310;52.198;5.422;2022-09-13T14:30:57;21.70;57.20
64843;DHT22;51310;52.198;5.422;2022-09-13T14:33:31;21.60;56.60
64843;DHT22;51310;52.198;5.422;2022-09-13T14:36:04;21.70;52.80
64843;DHT22;51310;52.198;5.422;2022-09-13T14:38:47;21.50;52.80
64843;DHT22;51310;52.198;5.422;2022-09-13T14:41:19;21.60;51.50
64843;DHT22;51310;52.198;5.422;2022-09-13T14:43:48;21.60;53.30
64843;DHT22;51310;52.198;5.422;2022-09-13T14:46:24;21.60;55.50
64843;DHT22;51310;52.198;5.422;2022-09-13T14:51:48;21.60;54.30
64843;DHT22;51310;52.198;5.422;2022-09-13T14:57:21;21.80;52.10
64843;DHT22;51310;52.198;5.422;2022-09-13T15:00:03;21.80;53.90
64843;DHT22;51310;52.198;5.422;2022-09-13T15:02:56;21.90;56.40
64843;DHT22;51310;52.198;5.422;2022-09-13T15:05:30;21.90;57.10
64843;DHT22;51310;52.198;5.422;2022-09-13T15:07:58;21.80;59.00
64843;DHT22;51310;52.198;5.422;2022-09-13T15:10:31;21.70;59.60
64843;DHT22;51310;52.198;5.422;2022-09-13T15:18:23;21.40;61.40
64843;DHT22;51310;52.198;5.422;2022-09-13T15:20:59;21.40;59.50
64843;DHT22;51310;52.198;5.422;2022-09-13T15:23:39;21.30;61.70
64843;DHT22;51310;52.198;5.422;2022-09-13T15:26:11;21.40;60.50
64843;DHT22;51310;52.198;5.422;2022-09-13T15:31:21;21.20;60.50
64843;DHT22;51310;52.198;5.422;2022-09-13T15:34:11;21.10;63.00
64843;DHT22;51310;52.198;5.422;2022-09-13T15:39:47;21.30;62.60
64843;DHT22;51310;52.198;5.422;2022-09-13T15:42:32;21.00;63.90
64843;DHT22;51310;52.198;5.422;2022-09-13T15:44:58;20.70;62.90
64843;DHT22;51310;52.198;5.422;2022-09-13T15:47:24;20.70;63.60
64843;DHT22;51310;52.198;5.422;2022-09-13T15:49:50;20.50;64.70
64843;DHT22;51310;52.198;5.422;2022-09-13T15:52:18;20.40;64.80
64843;DHT22;51310;52.198;5.422;2022-09-13T15:54:47;20.20;65.30
64843;DHT22;51310;52.198;5.422;2022-09-13T15:57:22;20.10;65.40
64843;DHT22;51310;52.198;5.422;2022-09-13T15:59:51;20.00;65.30
64843;DHT22;51310;52.198;5.422;2022-09-13T16:02:24;20.00;66.20
64843;DHT22;51310;52.198;5.422;2022-09-13T16:04:54;20.00;67.00
64843;DHT22;51310;52.198;5.422;2022-09-13T16:07:21;20.00;66.80
64843;DHT22;51310;52.198;5.422;2022-09-13T16:09:49;19.70;67.40
64843;DHT22;51310;52.198;5.422;2022-09-13T16:12:15;19.70;67.90
64843;DHT22;51310;52.198;5.422;2022-09-13T16:14:43;19.70;67.80
64843;DHT22;51310;52.198;5.422;2022-09-13T16:17:19;19.70;68.00
64843;DHT22;51310;52.198;5.422;2022-09-13T16:19:48;19.50;68.90
64843;DHT22;51310;52.198;5.422;2022-09-13T16:22:14;19.40;69.50
64843;DHT22;51310;52.198;5.422;2022-09-13T16:24:41;19.50;69.00
64843;DHT22;51310;52.198;5.422;2022-09-13T16:27:09;19.50;67.90
64843;DHT22;51310;52.198;5.422;2022-09-13T16:29:41;19.50;68.40
64843;DHT22;51310;52.198;5.422;2022-09-13T16:32:08;19.50;68.20
64843;DHT22;51310;52.198;5.422;2022-09-13T16:34:34;21.60;70.60
64843;DHT22;51310;52.198;5.422;2022-09-13T16:37:00;19.40;68.80
64843;DHT22;51310;52.198;5.422;2022-09-13T16:39:26;19.40;69.80
64843;DHT22;51310;52.198;5.422;2022-09-13T16:41:52;19.30;70.10
64843;DHT22;51310;52.198;5.422;2022-09-13T16:44:18;19.20;69.80
64843;DHT22;51310;52.198;5.422;2022-09-13T16:46:43;19.10;70.50
64843;DHT22;51310;52.198;5.422;2022-09-13T16:49:10;19.10;70.20
64843;DHT22;51310;52.198;5.422;2022-09-13T16:51:36;19.00;71.20
64843;DHT22;51310;52.198;5.422;2022-09-13T16:54:02;19.00;71.20
64843;DHT22;51310;52.198;5.422;2022-09-13T16:56:31;18.90;71.90
64843;DHT22;51310;52.198;5.422;2022-09-13T16:58:57;19.10;71.10
64843;DHT22;51310;52.198;5.422;2022-09-13T17:01:26;19.00;71.10
64843;DHT22;51310;52.198;5.422;2022-09-13T17:03:54;18.80;71.80
64843;DHT22;51310;52.198;5.422;2022-09-13T17:06:22;18.80;73.30
64843;DHT22;51310;52.198;5.422;2022-09-13T17:08:58;18.70;73.70
64843;DHT22;51310;52.198;5.422;2022-09-13T17:11:29;18.70;75.10
64843;DHT22;51310;52.198;5.422;2022-09-13T17:13:59;18.60;76.20
64843;DHT22;51310;52.198;5.422;2022-09-13T17:16:34;18.50;76.40
64843;DHT22;51310;52.198;5.422;2022-09-13T17:19:11;18.50;76.10
64843;DHT22;51310;52.198;5.422;2022-09-13T17:21:40;18.40;76.70
64843;DHT22;51310;52.198;5.422;2022-09-13T17:24:07;18.40;77.20
64843;DHT22;51310;52.198;5.422;2022-09-13T17:26:32;18.30;77.70
64843;DHT22;51310;52.198;5.422;2022-09-13T17:28:58;19.00;78.70
64843;DHT22;51310;52.198;5.422;2022-09-13T17:31:25;18.10;78.40
64843;DHT22;51310;52.198;5.422;2022-09-13T17:33:51;18.10;78.10
64843;DHT22;51310;52.198;5.422;2022-09-13T17:36:18;18.00;78.50
64843;DHT22;51310;52.198;5.422;2022-09-13T17:38:44;17.90;79.10
64843;DHT22;51310;52.198;5.422;2022-09-13T17:41:14;17.90;79.70
64843;DHT22;51310;52.198;5.422;2022-09-13T17:43:44;17.80;79.30
64843;DHT22;51310;52.198;5.422;2022-09-13T17:46:13;17.80;80.30
64843;DHT22;51310;52.198;5.422;2022-09-13T17:48:41;17.70;81.50
64843;DHT22;51310;52.198;5.422;2022-09-13T17:51:13;17.60;82.20
64843;DHT22;51310;52.198;5.422;2022-09-13T17:53:45;17.60;83.10
64843;DHT22;51310;52.198;5.422;2022-09-13T17:56:19;17.50;83.30
64843;DHT22;51310;52.198;5.422;2022-09-13T17:58:48;17.50;83.50
64843;DHT22;51310;52.198;5.422;2022-09-13T18:01:14;17.50;84.40
64843;DHT22;51310;52.198;5.422;2022-09-13T18:03:40;17.50;84.80
64843;DHT22;51310;52.198;5.422;2022-09-13T18:06:08;17.40;87.00
64843;DHT22;51310;52.198;5.422;2022-09-13T18:08:37;17.40;88.00
64843;DHT22;51310;52.198;5.422;2022-09-13T18:11:11;17.40;87.80
64843;DHT22;51310;52.198;5.422;2022-09-13T18:13:39;17.20;89.20
64843;DHT22;51310;52.198;5.422;2022-09-13T18:16:11;17.20;90.20
64843;DHT22;51310;52.198;5.422;2022-09-13T18:18:40;17.10;90.50
64843;DHT22;51310;52.198;5.422;2022-09-13T18:21:07;17.00;91.00
64843;DHT22;51310;52.198;5.422;2022-09-13T18:23:34;17.00;91.30
64843;DHT22;51310;52.198;5.422;2022-09-13T18:26:09;16.90;91.30
64843;DHT22;51310;52.198;5.422;2022-09-13T18:28:41;17.00;91.60
64843;DHT22;51310;52.198;5.422;2022-09-13T18:31:11;17.00;92.00
64843;DHT22;51310;52.198;5.422;2022-09-13T18:33:42;17.00;91.90
64843;DHT22;51310;52.198;5.422;2022-09-13T18:36:12;17.00;91.80
64843;DHT22;51310;52.198;5.422;2022-09-13T18:38:43;17.00;92.10
64843;DHT22;51310;52.198;5.422;2022-09-13T18:41:16;16.80;92.40
64843;DHT22;51310;52.198;5.422;2022-09-13T18:43:46;16.90;92.80
64843;DHT22;51310;52.198;5.422;2022-09-13T18:46:17;16.90;93.10
64843;DHT22;51310;52.198;5.422;2022-09-13T18:48:47;16.80;93.10
64843;DHT22;51310;52.198;5.422;2022-09-13T18:51:21;16.80;93.10
64843;DHT22;51310;52.198;5.422;2022-09-13T18:54:11;19.00;93.60
64843;DHT22;51310;52.198;5.422;2022-09-13T18:56:40;16.80;93.10
64843;DHT22;51310;52.198;5.422;2022-09-13T18:59:07;16.70;93.30
64843;DHT22;51310;52.198;5.422;2022-09-13T19:01:37;16.70;93.30
64843;DHT22;51310;52.198;5.422;2022-09-13T19:04:14;16.70;93.40
64843;DHT22;51310;52.198;5.422;2022-09-13T19:06:51;16.70;93.10
64843;DHT22;51310;52.198;5.422;2022-09-13T19:09:22;16.60;93.20
64843;DHT22;51310;52.198;5.422;2022-09-13T19:14:22;16.60;93.30
64843;DHT22;51310;52.198;5.422;2022-09-13T19:16:54;16.60;93.20
64843;DHT22;51310;52.198;5.422;2022-09-13T19:19:23;16.60;93.00
64843;DHT22;51310;52.198;5.422;2022-09-13T19:21:49;16.50;93.30
64843;DHT22;51310;52.198;5.422;2022-09-13T19:24:15;16.60;93.10
64843;DHT22;51310;52.198;5.422;2022-09-13T19:26:43;16.60;93.20
64843;DHT22;51310;52.198;5.422;2022-09-13T19:29:14;16.70;93.20
64843;DHT22;51310;52.198;5.422;2022-09-13T19:31:45;16.60;93.10
64843;DHT22;51310;52.198;5.422;2022-09-13T19:34:13;16.60;93.00
64843;DHT22;51310;52.198;5.422;2022-09-13T19:36:41;16.70;92.80
64843;DHT22;51310;52.198;5.422;2022-09-13T19:41:36;16.70;92.50
64843;DHT22;51310;52.198;5.422;2022-09-13T19:44:04;16.70;92.70
64843;DHT22;51310;52.198;5.422;2022-09-13T19:46:38;16.60;93.00
64843;DHT22;51310;52.198;5.422;2022-09-13T19:49:06;16.70;92.70
64843;DHT22;51310;52.198;5.422;2022-09-13T19:51:35;16.70;92.40
64843;DHT22;51310;52.198;5.422;2022-09-13T19:54:04;16.60;92.50
64843;DHT22;51310;52.198;5.422;2022-09-13T19:56:37;16.70;92.50
64843;DHT22;51310;52.198;5.422;2022-09-13T19:59:13;16.80;92.30
64843;DHT22;51310;52.198;5.422;2022-09-13T20:01:44;16.60;92.90
64843;DHT22;51310;52.198;5.422;2022-09-13T20:04:14;16.60;93.20